createdAt,value
2019-05-23T00:00:37.825Z,8.23
2019-05-23T00:03:07.700Z,8.83
2019-05-23T00:05:53.162Z,8.87
2019-05-23T00:08:26.598Z,9.93
2019-05-23T00:11:01.858Z,7.80
2019-05-23T00:13:57.844Z,8.00
2019-05-23T00:16:28.508Z,8.07
2019-05-23T00:18:58.614Z,7.97
2019-05-23T00:21:28.521Z,7.87
2019-05-23T00:23:58.098Z,8.03
2019-05-23T00:26:27.597Z,8.40
2019-05-23T00:29:09.565Z,9.13
2019-05-23T00:31:37.221Z,9.13
2019-05-23T00:34:06.814Z,9.03
2019-05-23T00:36:38.100Z,10.77
2019-05-23T00:39:09.674Z,9.50
2019-05-23T00:41:40.529Z,9.73
2019-05-23T00:44:10.682Z,9.40
2019-05-23T00:46:40.174Z,9.27
2019-05-23T00:49:09.668Z,9.70
2019-05-23T00:51:39.868Z,9.57
2019-05-23T00:54:09.297Z,10.03
2019-05-23T00:56:39.465Z,10.57
2019-05-23T00:59:09.015Z,9.87
2019-05-23T01:01:38.942Z,10.73
2019-05-23T01:04:09.564Z,9.90
2019-05-23T01:06:39.186Z,11.70
2019-05-23T01:09:08.855Z,9.73
2019-05-23T01:11:38.519Z,11.10
2019-05-23T01:14:08.477Z,9.73
2019-05-23T01:16:38.893Z,10.07
2019-05-23T01:19:08.865Z,11.20
2019-05-23T01:21:47.682Z,10.17
2019-05-23T01:24:36.261Z,10.23
2019-05-23T01:27:05.955Z,11.07
2019-05-23T01:29:49.943Z,10.57
2019-05-23T01:32:24.449Z,9.83
2019-05-23T01:34:54.067Z,10.83
2019-05-23T01:37:24.369Z,11.33
2019-05-23T01:39:53.752Z,11.50
2019-05-23T01:42:23.452Z,10.80
2019-05-23T01:44:54.660Z,10.73
2019-05-23T01:47:24.183Z,10.17
2019-05-23T01:49:54.686Z,10.50
2019-05-23T01:52:24.050Z,10.60
2019-05-23T01:54:53.421Z,10.87
2019-05-23T01:57:23.543Z,10.97
2019-05-23T02:00:08.293Z,10.53
2019-05-23T02:02:24.982Z,10.07
2019-05-23T02:04:54.336Z,9.53
2019-05-23T02:07:24.188Z,10.87
2019-05-23T02:09:54.200Z,10.57
2019-05-23T02:12:23.585Z,10.57
2019-05-23T02:14:52.899Z,10.37
2019-05-23T02:17:22.581Z,10.17
2019-05-23T02:19:51.963Z,10.43
2019-05-23T02:22:21.642Z,10.73
2019-05-23T02:24:51.125Z,9.57
2019-05-23T02:27:21.089Z,10.23
2019-05-23T02:29:50.469Z,10.07
2019-05-23T02:32:20.569Z,11.07
2019-05-23T02:34:51.165Z,11.50
2019-05-23T02:37:34.674Z,13.90
2019-05-23T02:40:15.160Z,10.83
2019-05-23T02:42:48.329Z,12.37
2019-05-23T02:45:23.077Z,10.93
2019-05-23T02:47:52.813Z,11.43
2019-05-23T02:50:28.622Z,12.53
2019-05-23T02:52:59.733Z,11.63
2019-05-23T02:55:37.594Z,11.83
2019-05-23T02:58:22.630Z,11.83
2019-05-23T03:01:12.194Z,12.37
2019-05-23T03:03:42.173Z,12.07
2019-05-23T03:06:17.537Z,11.80
2019-05-23T03:08:48.762Z,12.30
2019-05-23T03:11:39.140Z,13.30
2019-05-23T03:14:11.570Z,13.47
2019-05-23T03:16:43.864Z,13.20
2019-05-23T03:19:21.761Z,14.10
2019-05-23T03:21:55.309Z,14.07
2019-05-23T03:24:25.356Z,13.73
2019-05-23T03:27:15.402Z,14.23
2019-05-23T03:29:45.125Z,13.93
2019-05-23T03:32:38.841Z,14.50
2019-05-23T03:35:22.073Z,13.80
2019-05-23T03:37:53.666Z,15.17
2019-05-23T03:40:23.901Z,16.30
2019-05-23T03:42:53.381Z,15.50
2019-05-23T03:45:26.463Z,15.80
2019-05-23T03:47:56.425Z,15.50
2019-05-23T03:50:27.452Z,16.90
2019-05-23T03:52:56.850Z,16.33
2019-05-23T03:55:28.712Z,16.63
2019-05-23T03:58:00.903Z,15.13
2019-05-23T04:00:34.516Z,16.20
2019-05-23T04:03:04.618Z,16.23
2019-05-23T04:05:35.630Z,18.10
2019-05-23T04:08:05.975Z,18.20
2019-05-23T04:10:35.461Z,18.27
2019-05-23T04:13:05.170Z,18.03
2019-05-23T04:15:34.654Z,18.90
2019-05-23T04:18:04.398Z,18.33
2019-05-23T04:20:33.788Z,19.63
2019-05-23T04:23:03.264Z,19.63
2019-05-23T04:25:32.949Z,19.07
2019-05-23T04:28:02.737Z,20.43
2019-05-23T04:30:32.155Z,19.37
2019-05-23T04:33:01.530Z,17.20
2019-05-23T04:35:31.419Z,22.00
2019-05-23T04:38:00.928Z,18.23
2019-05-23T04:40:31.899Z,18.63
2019-05-23T04:43:01.393Z,18.03
2019-05-23T04:45:31.310Z,19.23
2019-05-23T04:48:00.561Z,19.83
2019-05-23T04:50:30.829Z,19.07
2019-05-23T04:53:00.409Z,20.13
2019-05-23T04:55:30.020Z,20.43
2019-05-23T04:58:03.969Z,19.23
2019-05-23T05:00:31.141Z,19.17
2019-05-23T05:03:00.610Z,19.47
2019-05-23T05:05:31.149Z,18.97
2019-05-23T05:08:00.566Z,18.37
2019-05-23T05:10:30.982Z,19.47
2019-05-23T05:13:00.964Z,19.00
2019-05-23T05:15:30.439Z,19.27
2019-05-23T05:17:59.892Z,17.80
2019-05-23T05:20:29.402Z,18.97
2019-05-23T05:22:58.865Z,19.07
2019-05-23T05:25:29.259Z,18.40
2019-05-23T05:27:59.320Z,20.20
2019-05-23T05:30:28.724Z,20.30
2019-05-23T05:32:58.110Z,20.63
2019-05-23T05:35:29.251Z,19.70
2019-05-23T05:37:58.796Z,20.20
2019-05-23T05:40:28.607Z,19.53
2019-05-23T05:42:58.168Z,20.53
2019-05-23T05:45:27.532Z,19.93
2019-05-23T05:47:57.019Z,20.17
2019-05-23T05:50:26.467Z,20.10
2019-05-23T05:52:56.154Z,20.57
2019-05-23T05:55:25.712Z,21.97
2019-05-23T05:57:55.096Z,19.93
2019-05-23T06:00:52.750Z,20.03
2019-05-23T06:03:22.085Z,20.40
2019-05-23T06:05:58.142Z,19.97
2019-05-23T06:08:27.965Z,21.17
2019-05-23T06:10:58.032Z,18.97
2019-05-23T06:13:28.432Z,18.90
2019-05-23T06:15:57.790Z,19.43
2019-05-23T06:18:27.775Z,17.23
2019-05-23T06:20:57.302Z,16.90
2019-05-23T06:23:26.707Z,17.03
2019-05-23T06:25:55.960Z,16.87
2019-05-23T06:28:26.031Z,16.77
2019-05-23T06:30:55.772Z,16.17
2019-05-23T06:33:26.131Z,13.27
2019-05-23T06:35:55.775Z,14.03
2019-05-23T06:38:25.994Z,15.33
2019-05-23T06:40:55.802Z,13.40
2019-05-23T06:43:25.660Z,15.03
2019-05-23T06:45:54.971Z,14.07
2019-05-23T06:48:25.549Z,13.13
2019-05-23T06:50:54.796Z,13.87
2019-05-23T06:53:24.078Z,13.33
2019-05-23T06:55:53.621Z,12.53
2019-05-23T06:58:23.529Z,12.23
2019-05-23T07:00:53.587Z,11.50
2019-05-23T07:03:39.836Z,12.57
2019-05-23T07:05:54.088Z,11.47
2019-05-23T07:08:26.533Z,12.07
2019-05-23T07:10:56.004Z,9.03
2019-05-23T07:13:27.562Z,7.93
2019-05-23T07:15:56.926Z,7.53
2019-05-23T07:18:26.397Z,7.17
2019-05-23T07:20:55.654Z,6.90
2019-05-23T07:23:25.194Z,6.93
2019-05-23T07:25:54.407Z,7.57
2019-05-23T07:28:23.735Z,6.20
2019-05-23T07:30:53.062Z,6.10
2019-05-23T07:33:22.322Z,6.07
2019-05-23T07:35:51.935Z,5.53
2019-05-23T07:38:21.169Z,4.87
2019-05-23T07:40:50.887Z,5.43
2019-05-23T07:43:20.504Z,4.10
2019-05-23T07:45:53.204Z,4.27
2019-05-23T07:48:22.465Z,6.50
2019-05-23T07:50:51.669Z,3.90
2019-05-23T07:53:43.747Z,4.40
2019-05-23T07:56:13.460Z,4.13
2019-05-23T07:58:42.848Z,4.73
2019-05-23T08:01:14.137Z,5.60
2019-05-23T08:03:43.900Z,5.53
2019-05-23T08:06:13.920Z,7.17
2019-05-23T08:08:43.557Z,6.13
2019-05-23T08:11:12.947Z,6.60
2019-05-23T08:13:42.613Z,6.33
2019-05-23T08:16:12.321Z,5.20
2019-05-23T08:18:42.422Z,5.50
2019-05-23T08:21:11.806Z,5.97
2019-05-23T08:23:41.200Z,5.83
2019-05-23T08:26:10.933Z,5.63
2019-05-23T08:29:00.484Z,5.60
2019-05-23T08:31:12.273Z,5.67
2019-05-23T08:33:41.875Z,5.83
2019-05-23T08:36:11.818Z,4.80
2019-05-23T08:38:41.325Z,6.67
2019-05-23T08:41:11.894Z,5.33
2019-05-23T08:43:41.958Z,5.57
2019-05-23T08:46:11.647Z,5.40
2019-05-23T08:48:41.078Z,6.27
2019-05-23T08:51:10.668Z,10.07
2019-05-23T08:53:40.159Z,5.90
2019-05-23T08:56:18.424Z,6.47
2019-05-23T08:58:41.056Z,5.33
2019-05-23T09:01:11.823Z,5.70
2019-05-23T09:03:41.535Z,5.70
2019-05-23T09:06:11.302Z,8.57
2019-05-23T09:08:41.435Z,5.13
2019-05-23T09:11:11.480Z,5.50
2019-05-23T09:13:40.906Z,6.20
2019-05-23T09:16:10.732Z,5.30
2019-05-23T09:18:40.200Z,6.23
2019-05-23T09:21:11.655Z,6.00
2019-05-23T09:23:40.829Z,4.90
2019-05-23T09:26:10.124Z,5.37
2019-05-23T09:28:39.509Z,5.07
2019-05-23T09:31:09.433Z,5.90
2019-05-23T09:33:38.854Z,5.07
2019-05-23T09:36:08.678Z,5.83
2019-05-23T09:38:38.068Z,5.57
2019-05-23T09:41:07.492Z,4.80
2019-05-23T09:43:36.859Z,5.03
2019-05-23T09:46:06.477Z,5.70
2019-05-23T09:48:36.388Z,5.67
2019-05-23T09:51:05.980Z,5.63
2019-05-23T09:53:35.507Z,5.20
2019-05-23T09:56:05.019Z,4.83
2019-05-23T09:58:34.415Z,4.73
2019-05-23T10:01:04.472Z,4.67
2019-05-23T10:03:33.892Z,4.30
2019-05-23T10:06:03.441Z,4.70
2019-05-23T10:08:33.026Z,5.20
2019-05-23T10:11:03.541Z,3.83
2019-05-23T10:13:38.919Z,5.53
2019-05-23T10:16:06.455Z,4.80
2019-05-23T10:18:36.024Z,5.13
2019-05-23T10:21:06.904Z,5.17
2019-05-23T10:23:36.260Z,5.00
2019-05-23T10:26:06.238Z,5.03
2019-05-23T10:28:35.635Z,6.27
2019-05-23T10:31:07.803Z,5.20
2019-05-23T10:33:37.530Z,6.27
2019-05-23T10:36:06.823Z,5.03
2019-05-23T10:38:36.217Z,4.47
2019-05-23T10:41:06.026Z,4.93
2019-05-23T10:43:35.449Z,4.63
2019-05-23T10:46:04.942Z,4.93
2019-05-23T10:48:34.595Z,4.93
2019-05-23T10:51:04.496Z,4.67
2019-05-23T10:53:33.885Z,4.53
2019-05-23T10:56:03.241Z,4.47
2019-05-23T10:58:32.575Z,5.77
2019-05-23T11:01:01.960Z,6.60
2019-05-23T11:03:31.691Z,5.80
2019-05-23T11:06:14.946Z,4.70
2019-05-23T11:08:32.110Z,5.17
2019-05-23T11:11:01.734Z,5.17
2019-05-23T11:13:31.284Z,4.60
2019-05-23T11:16:00.762Z,5.00
2019-05-23T11:18:30.265Z,5.00
2019-05-23T11:20:59.650Z,7.23
2019-05-23T11:23:35.988Z,9.13
2019-05-23T11:26:06.195Z,5.27
2019-05-23T11:28:37.284Z,5.77
2019-05-23T11:31:08.207Z,4.87
2019-05-23T11:33:37.586Z,4.37
2019-05-23T11:36:07.293Z,5.70
2019-05-23T11:38:36.670Z,4.50
2019-05-23T11:41:06.039Z,4.13
2019-05-23T11:43:35.416Z,4.10
2019-05-23T11:46:13.960Z,4.90
2019-05-23T11:48:43.291Z,5.63
2019-05-23T11:51:12.663Z,4.73
2019-05-23T11:53:45.463Z,5.23
2019-05-23T11:56:13.275Z,5.00
2019-05-23T11:58:42.587Z,6.97
2019-05-23T12:01:43.746Z,4.67
2019-05-23T12:04:18.159Z,5.17
2019-05-23T12:07:15.471Z,4.37
2019-05-23T12:09:44.843Z,5.58
2019-05-23T12:12:14.260Z,6.10
2019-05-23T12:14:43.540Z,4.67
2019-05-23T12:17:14.546Z,4.85
2019-05-23T12:19:44.111Z,4.87
2019-05-23T12:22:14.512Z,10.65
2019-05-23T12:24:44.044Z,4.85
2019-05-23T12:27:15.042Z,4.92
2019-05-23T12:29:44.620Z,4.28
2019-05-23T12:32:14.622Z,3.95
2019-05-23T12:34:44.141Z,4.10
2019-05-23T12:37:19.092Z,3.72
2019-05-23T12:39:44.676Z,5.08
2019-05-23T12:42:14.198Z,5.12
2019-05-23T12:44:43.556Z,4.87
2019-05-23T12:47:21.733Z,4.37
2019-05-23T12:49:55.267Z,3.50
2019-05-23T12:52:24.761Z,4.22
2019-05-23T12:54:54.393Z,4.87
2019-05-23T12:57:23.749Z,4.05
2019-05-23T12:59:53.242Z,4.67
2019-05-23T13:02:25.720Z,4.20
2019-05-23T13:04:55.081Z,4.58
2019-05-23T13:07:35.875Z,4.58
2019-05-23T13:09:55.706Z,3.83
2019-05-23T13:12:25.640Z,5.70
2019-05-23T13:14:58.738Z,3.20
2019-05-23T13:17:26.334Z,3.25
2019-05-23T13:19:55.609Z,4.08
2019-05-23T13:22:25.009Z,2.90
2019-05-23T13:24:54.299Z,2.90
2019-05-23T13:27:23.758Z,2.77
2019-05-23T13:29:53.072Z,2.75
2019-05-23T13:32:22.770Z,3.35
2019-05-23T13:34:52.146Z,2.70
2019-05-23T13:37:22.933Z,2.75
2019-05-23T13:39:52.343Z,2.75
2019-05-23T13:42:21.727Z,3.02
2019-05-23T13:44:51.621Z,2.62
2019-05-23T13:47:20.951Z,3.15
2019-05-23T13:49:50.378Z,4.10
2019-05-23T13:52:19.745Z,5.03
2019-05-23T13:54:49.120Z,2.50
2019-05-23T13:57:18.719Z,2.95
2019-05-23T13:59:48.036Z,3.05
2019-05-23T14:02:17.487Z,2.60
2019-05-23T14:04:46.874Z,2.62
2019-05-23T14:07:16.852Z,2.52
2019-05-23T14:09:46.392Z,2.58
2019-05-23T14:12:21.614Z,4.33
2019-05-23T14:14:48.386Z,3.00
2019-05-23T14:17:32.836Z,2.22
2019-05-23T14:20:02.286Z,2.60
2019-05-23T14:22:33.213Z,3.10
2019-05-23T14:25:02.633Z,2.50
2019-05-23T14:27:39.204Z,3.08
2019-05-23T14:30:17.310Z,2.40
2019-05-23T14:32:52.153Z,2.80
2019-05-23T14:35:25.948Z,2.40
2019-05-23T14:37:56.895Z,2.70
2019-05-23T14:40:26.356Z,2.40
2019-05-23T14:43:15.886Z,3.30
2019-05-23T14:45:50.913Z,2.83
2019-05-23T14:48:37.969Z,2.70
2019-05-23T14:51:25.126Z,2.87
2019-05-23T14:53:59.733Z,2.55
2019-05-23T14:56:31.383Z,3.77
2019-05-23T14:59:00.733Z,2.77
2019-05-23T15:01:32.161Z,2.83
2019-05-23T15:04:02.002Z,2.98
2019-05-23T15:06:31.651Z,4.00
2019-05-23T15:09:01.045Z,2.83
2019-05-23T15:11:30.505Z,2.70
2019-05-23T15:13:59.967Z,2.72
2019-05-23T15:16:29.361Z,4.12
2019-05-23T15:18:58.960Z,3.00
2019-05-23T15:21:28.276Z,2.70
2019-05-23T15:23:57.605Z,2.67
2019-05-23T15:26:27.020Z,3.97
2019-05-23T15:28:56.429Z,3.70
2019-05-23T15:31:26.196Z,3.13
2019-05-23T15:33:55.585Z,3.90
2019-05-23T15:36:25.039Z,3.53
2019-05-23T15:39:09.165Z,3.73
2019-05-23T15:41:25.639Z,3.43
2019-05-23T15:43:55.061Z,4.10
2019-05-23T15:46:24.384Z,2.87
2019-05-23T15:48:53.746Z,3.50
2019-05-23T15:51:30.080Z,4.13
2019-05-23T15:54:08.025Z,3.30
2019-05-23T15:57:08.308Z,4.10
2019-05-23T15:59:48.243Z,2.97
2019-05-23T16:02:23.533Z,3.10
2019-05-23T16:04:55.303Z,3.37
2019-05-23T16:07:25.079Z,2.90
2019-05-23T16:09:54.613Z,3.20
2019-05-23T16:12:24.169Z,4.33
2019-05-23T16:14:53.860Z,16.70
2019-05-23T16:17:23.394Z,6.78
2019-05-23T16:19:52.860Z,2.90
2019-05-23T16:22:22.260Z,2.47
2019-05-23T16:24:51.684Z,2.30
2019-05-23T16:27:21.628Z,2.85
2019-05-23T16:29:51.137Z,2.85
2019-05-23T16:32:20.572Z,2.77
2019-05-23T16:34:49.976Z,4.70
2019-05-23T16:37:20.457Z,8.83
2019-05-23T16:39:50.292Z,3.83
2019-05-23T16:42:20.100Z,3.20
2019-05-23T16:44:49.658Z,4.67
2019-05-23T16:47:21.270Z,3.77
2019-05-23T16:49:50.630Z,5.05
2019-05-23T16:52:20.302Z,3.45
2019-05-23T16:54:51.370Z,4.17
2019-05-23T16:57:32.330Z,5.25
2019-05-23T17:00:21.105Z,4.05
2019-05-23T17:02:59.614Z,3.90
2019-05-23T17:05:51.744Z,4.03
2019-05-23T17:08:50.704Z,6.35
2019-05-23T17:11:39.243Z,4.28
2019-05-23T17:14:26.457Z,5.97
2019-05-23T17:17:42.972Z,5.42
2019-05-23T17:20:01.183Z,11.07
2019-05-23T17:22:58.576Z,6.23
2019-05-23T17:25:53.401Z,6.93
2019-05-23T17:28:30.890Z,6.77
2019-05-23T17:31:05.305Z,6.17
2019-05-23T17:33:37.170Z,6.97
2019-05-23T17:36:06.979Z,7.50
2019-05-23T17:38:36.382Z,6.80
2019-05-23T17:41:06.131Z,6.33
2019-05-23T17:43:35.619Z,7.33
2019-05-23T17:46:05.026Z,6.80
2019-05-23T17:48:34.435Z,6.27
2019-05-23T17:51:03.821Z,7.57
2019-05-23T17:53:33.261Z,6.83
2019-05-23T17:56:03.355Z,6.83
2019-05-23T17:58:33.069Z,6.77
2019-05-23T18:01:02.691Z,6.47
2019-05-23T18:03:32.207Z,6.47
2019-05-23T18:06:01.677Z,8.53
2019-05-23T18:08:31.717Z,7.50
2019-05-23T18:11:01.214Z,10.27
2019-05-23T18:13:30.644Z,7.80
2019-05-23T18:16:00.039Z,9.40
2019-05-23T18:18:29.543Z,9.57
2019-05-23T18:20:59.195Z,7.10
2019-05-23T18:23:28.757Z,9.67
2019-05-23T18:25:59.916Z,7.10
2019-05-23T18:28:29.510Z,7.97
2019-05-23T18:31:09.928Z,13.07
2019-05-23T18:33:37.962Z,7.77
2019-05-23T18:36:09.220Z,8.27
2019-05-23T18:38:39.282Z,8.10
2019-05-23T18:41:09.625Z,8.10
2019-05-23T18:43:39.222Z,8.57
2019-05-23T18:46:13.708Z,8.77
2019-05-23T18:48:43.200Z,10.63
2019-05-23T18:51:12.701Z,9.40
2019-05-23T18:53:42.438Z,10.23
2019-05-23T18:56:12.084Z,8.47
2019-05-23T18:58:41.659Z,8.80
2019-05-23T19:01:14.009Z,9.37
2019-05-23T19:03:44.193Z,9.33
2019-05-23T19:06:13.619Z,8.30
2019-05-23T19:08:43.036Z,14.23
2019-05-23T19:11:20.707Z,8.23
2019-05-23T19:13:44.513Z,8.70
2019-05-23T19:16:14.062Z,9.40
2019-05-23T19:18:43.838Z,9.57
2019-05-23T19:21:16.720Z,9.23
2019-05-23T19:23:48.138Z,10.93
2019-05-23T19:26:19.608Z,10.73
2019-05-23T19:28:50.100Z,11.10
2019-05-23T19:31:21.025Z,10.43
2019-05-23T19:33:50.366Z,10.07
2019-05-23T19:36:19.855Z,9.53
2019-05-23T19:38:49.685Z,9.03
2019-05-23T19:41:36.816Z,9.10
2019-05-23T19:43:55.327Z,11.23
2019-05-23T19:46:25.075Z,8.57
2019-05-23T19:48:56.113Z,8.00
2019-05-23T19:51:25.776Z,9.03
2019-05-23T19:53:56.194Z,9.60
2019-05-23T19:56:25.601Z,10.60
2019-05-23T20:00:16.130Z,10.97
2019-05-23T20:04:06.985Z,10.10
2019-05-23T20:06:08.292Z,10.57
2019-05-23T20:08:37.799Z,11.37
2019-05-23T20:11:08.058Z,10.73
2019-05-23T20:13:37.403Z,10.47
2019-05-23T20:16:07.442Z,10.00
2019-05-23T20:18:36.941Z,10.67
2019-05-23T20:21:06.265Z,11.70
2019-05-23T20:23:35.490Z,12.83
2019-05-23T20:26:07.892Z,11.97
2019-05-23T20:28:39.538Z,12.67
2019-05-23T20:31:07.441Z,12.80
2019-05-23T20:33:37.008Z,12.37
2019-05-23T20:36:12.336Z,11.43
2019-05-23T20:38:41.289Z,12.10
2019-05-23T20:41:10.960Z,13.07
2019-05-23T20:43:40.409Z,13.53
2019-05-23T20:46:09.816Z,11.57
2019-05-23T20:48:39.823Z,13.53
2019-05-23T20:51:09.310Z,13.10
2019-05-23T20:53:52.324Z,13.63
2019-05-23T20:56:21.676Z,12.93
2019-05-23T20:59:09.629Z,13.37
2019-05-23T21:01:40.956Z,13.90
2019-05-23T21:04:10.363Z,14.27
2019-05-23T21:06:39.766Z,12.80
2019-05-23T21:15:36.929Z,14.37
2019-05-23T21:18:06.349Z,14.40
2019-05-23T21:20:35.828Z,12.87
2019-05-23T21:23:05.403Z,13.07
2019-05-23T21:25:35.896Z,13.80
2019-05-23T21:28:05.308Z,13.60
2019-05-23T21:30:34.932Z,14.00
2019-05-23T21:33:04.227Z,15.20
2019-05-23T21:35:33.614Z,14.83
2019-05-23T21:38:03.011Z,14.33
2019-05-23T21:40:42.648Z,15.00
2019-05-23T21:43:12.954Z,13.40
2019-05-23T21:45:42.545Z,15.13
2019-05-23T21:48:12.080Z,13.87
2019-05-23T21:50:42.094Z,14.43
2019-05-23T21:53:11.641Z,14.17
2019-05-23T21:55:42.289Z,14.80
2019-05-23T21:58:12.677Z,13.87
2019-05-23T22:01:19.656Z,15.07
2019-05-23T22:03:56.244Z,15.07
2019-05-23T22:06:28.101Z,15.33
2019-05-23T22:08:57.823Z,13.57
2019-05-23T22:11:27.111Z,14.50
2019-05-23T22:13:56.451Z,16.67
2019-05-23T22:16:26.005Z,16.13
2019-05-23T22:18:55.298Z,16.87
2019-05-23T22:21:24.720Z,17.57
2019-05-23T22:23:54.029Z,16.27
2019-05-23T22:26:23.349Z,18.27
2019-05-23T22:28:52.531Z,18.83
2019-05-23T22:31:22.266Z,18.47
2019-05-23T22:33:57.400Z,19.67
2019-05-23T22:36:26.751Z,18.30
2019-05-23T22:38:55.994Z,17.17
2019-05-23T22:41:25.355Z,18.00
2019-05-23T22:43:54.683Z,18.50
2019-05-23T22:46:25.621Z,20.00
2019-05-23T22:48:54.929Z,19.00
2019-05-23T22:51:25.238Z,20.47
2019-05-23T22:53:54.521Z,20.80
2019-05-23T22:56:23.708Z,20.07
2019-05-23T22:58:52.977Z,20.70
2019-05-23T23:01:23.880Z,21.67
2019-05-23T23:03:53.140Z,20.73
2019-05-23T23:06:22.557Z,21.13
2019-05-23T23:08:51.901Z,21.23
2019-05-23T23:11:21.117Z,21.60
2019-05-23T23:13:50.412Z,22.00
2019-05-23T23:16:19.674Z,23.17
2019-05-23T23:18:49.006Z,23.13
2019-05-23T23:21:18.237Z,23.60
2019-05-23T23:23:47.576Z,23.50
2019-05-23T23:26:16.884Z,23.07
2019-05-23T23:28:46.189Z,24.87
2019-05-23T23:31:15.436Z,25.20
2019-05-23T23:33:44.697Z,23.77
2019-05-23T23:36:14.013Z,25.23
2019-05-23T23:38:43.242Z,25.73
2019-05-23T23:41:12.473Z,26.80
2019-05-23T23:43:58.175Z,27.20
2019-05-23T23:46:30.949Z,26.07
2019-05-23T23:49:17.673Z,25.23
2019-05-23T23:52:04.611Z,25.27
2019-05-23T23:54:51.356Z,26.27
2019-05-23T23:57:38.231Z,27.17
